createdAt,value
2023-05-03T00:00:10.300Z,47.59
2023-05-03T00:02:37.469Z,47.61
2023-05-03T00:05:06.046Z,47.93
2023-05-03T00:07:33.689Z,47.45
2023-05-03T00:10:00.804Z,47.91
2023-05-03T00:12:27.840Z,48.25
2023-05-03T00:14:54.751Z,48.58
2023-05-03T00:17:21.999Z,48.83
2023-05-03T00:19:48.777Z,49.76
2023-05-03T00:22:15.732Z,50.25
2023-05-03T00:24:42.554Z,50.11
2023-05-03T00:27:09.363Z,49.92
2023-05-03T00:29:36.214Z,50.52
2023-05-03T00:32:03.043Z,50.43
2023-05-03T00:34:29.910Z,50.91
2023-05-03T00:36:56.980Z,51.06
2023-05-03T00:39:23.808Z,51.57
2023-05-03T00:41:56.248Z,51.56
2023-05-03T00:44:23.209Z,51.64
2023-05-03T00:46:52.147Z,52.11
2023-05-03T00:49:19.550Z,51.72
2023-05-03T00:51:46.406Z,51.92
2023-05-03T00:54:13.531Z,52.89
2023-05-03T00:56:51.035Z,53.60
2023-05-03T00:59:19.436Z,54.00
2023-05-03T01:01:49.701Z,54.68
2023-05-03T01:04:17.246Z,55.91
2023-05-03T01:06:53.021Z,56.00
2023-05-03T01:09:34.011Z,56.31
2023-05-03T01:12:17.634Z,56.19
2023-05-03T01:15:12.294Z,56.68
2023-05-03T01:17:50.205Z,56.89
2023-05-03T01:20:22.750Z,57.33
2023-05-03T01:22:58.584Z,57.31
2023-05-03T01:25:26.048Z,57.91
2023-05-03T01:27:53.136Z,57.91
2023-05-03T01:30:23.748Z,57.54
2023-05-03T01:32:53.329Z,57.11
2023-05-03T01:35:47.727Z,57.55
2023-05-03T01:38:16.222Z,57.95
2023-05-03T01:40:49.925Z,57.81
2023-05-03T01:43:18.890Z,57.76
2023-05-03T01:45:46.373Z,58.39
2023-05-03T01:48:18.799Z,58.18
2023-05-03T01:50:45.956Z,58.35
2023-05-03T01:53:12.801Z,58.33
2023-05-03T01:55:39.674Z,58.54
2023-05-03T01:58:06.518Z,58.43
2023-05-03T02:00:33.595Z,59.36
2023-05-03T02:03:00.553Z,59.23
2023-05-03T02:05:27.416Z,59.16
2023-05-03T02:07:54.307Z,59.00
2023-05-03T02:10:21.223Z,58.52
2023-05-03T02:12:48.074Z,59.33
2023-05-03T02:15:14.948Z,60.01
2023-05-03T02:17:43.533Z,58.99
2023-05-03T02:20:10.569Z,59.43
2023-05-03T02:22:37.407Z,58.62
2023-05-03T02:25:04.772Z,58.67
2023-05-03T02:27:31.607Z,58.69
2023-05-03T02:29:58.351Z,58.66
2023-05-03T02:32:25.293Z,58.39
2023-05-03T02:34:52.197Z,58.96
2023-05-03T02:37:19.077Z,58.93
2023-05-03T02:39:46.009Z,59.05
2023-05-03T02:42:12.810Z,59.01
2023-05-03T02:44:39.691Z,59.10
2023-05-03T02:47:06.538Z,58.28
2023-05-03T02:49:33.388Z,58.65
2023-05-03T02:52:00.218Z,59.83
2023-05-03T02:54:27.235Z,59.85
2023-05-03T02:56:54.077Z,60.07
2023-05-03T02:59:20.923Z,59.96
2023-05-03T03:01:47.793Z,59.54
2023-05-03T03:04:14.543Z,60.02
2023-05-03T03:06:41.462Z,60.34
2023-05-03T03:09:08.317Z,59.65
2023-05-03T03:11:35.264Z,60.11
2023-05-03T03:14:02.135Z,60.45
2023-05-03T03:16:29.015Z,59.42
2023-05-03T03:18:55.910Z,60.55
2023-05-03T03:21:22.672Z,61.22
2023-05-03T03:23:49.489Z,60.40
2023-05-03T03:26:16.329Z,59.92
2023-05-03T03:28:43.185Z,59.65
2023-05-03T03:31:10.183Z,59.84
2023-05-03T03:33:37.059Z,60.09
2023-05-03T03:36:04.081Z,61.78
2023-05-03T03:38:30.966Z,62.92
2023-05-03T03:40:57.800Z,61.97
2023-05-03T03:43:24.584Z,62.71
2023-05-03T03:45:51.474Z,64.11
2023-05-03T03:48:18.304Z,62.48
2023-05-03T03:50:45.884Z,61.65
2023-05-03T03:53:12.717Z,61.31
2023-05-03T03:55:39.512Z,62.38
2023-05-03T03:58:06.391Z,61.93
2023-05-03T04:00:35.182Z,61.31
2023-05-03T04:03:03.140Z,60.82
2023-05-03T04:05:31.332Z,60.00
2023-05-03T04:07:58.744Z,59.66
2023-05-03T04:10:25.586Z,58.98
2023-05-03T04:12:52.360Z,57.58
2023-05-03T04:15:19.246Z,56.08
2023-05-03T04:17:46.090Z,54.52
2023-05-03T04:20:13.319Z,55.34
2023-05-03T04:22:40.176Z,53.99
2023-05-03T04:25:11.594Z,54.63
2023-05-03T04:27:38.474Z,54.11
2023-05-03T04:30:06.189Z,53.48
2023-05-03T04:32:33.169Z,53.19
2023-05-03T04:34:59.948Z,52.62
2023-05-03T04:37:26.948Z,50.39
2023-05-03T04:39:53.730Z,50.47
2023-05-03T04:42:20.548Z,48.93
2023-05-03T04:44:47.514Z,48.81
2023-05-03T04:47:14.319Z,48.47
2023-05-03T04:49:41.147Z,48.54
2023-05-03T04:52:08.041Z,47.73
2023-05-03T04:54:34.842Z,48.17
2023-05-03T04:57:01.727Z,47.79
2023-05-03T04:59:28.684Z,47.67
2023-05-03T05:01:55.633Z,47.38
2023-05-03T05:04:22.753Z,45.96
2023-05-03T05:06:52.825Z,46.64
2023-05-03T05:09:24.313Z,47.59
2023-05-03T05:11:51.176Z,47.88
2023-05-03T05:14:18.138Z,52.00
2023-05-03T05:16:45.501Z,52.87
2023-05-03T05:19:12.982Z,53.07
2023-05-03T05:21:40.396Z,54.52
2023-05-03T05:24:07.313Z,53.14
2023-05-03T05:26:34.474Z,52.46
2023-05-03T05:29:01.341Z,53.68
2023-05-03T05:31:28.132Z,55.27
2023-05-03T05:33:54.920Z,54.66
2023-05-03T05:36:21.885Z,53.61
2023-05-03T05:38:48.712Z,53.71
2023-05-03T05:41:15.663Z,54.89
2023-05-03T05:43:42.593Z,53.21
2023-05-03T05:46:12.085Z,52.48
2023-05-03T05:48:39.619Z,53.69
2023-05-03T05:51:06.463Z,51.71
2023-05-03T05:53:33.517Z,52.68
2023-05-03T05:56:00.356Z,53.53
2023-05-03T05:58:27.325Z,52.53
2023-05-03T06:00:58.594Z,52.03
2023-05-03T06:03:25.438Z,52.03
2023-05-03T06:05:52.391Z,51.93
2023-05-03T06:08:19.187Z,51.78
2023-05-03T06:10:51.629Z,51.47
2023-05-03T06:13:18.576Z,50.30
2023-05-03T06:15:45.354Z,48.48
2023-05-03T06:18:12.246Z,47.60
2023-05-03T06:20:39.241Z,48.35
2023-05-03T06:23:06.056Z,47.33
2023-05-03T06:25:32.856Z,47.18
2023-05-03T06:27:59.676Z,45.17
2023-05-03T06:30:26.558Z,46.43
2023-05-03T06:32:53.447Z,46.38
2023-05-03T06:35:20.348Z,45.92
2023-05-03T06:37:48.170Z,44.37
2023-05-03T06:40:15.016Z,44.27
2023-05-03T06:42:41.888Z,44.41
2023-05-03T06:45:09.157Z,41.81
2023-05-03T06:47:36.075Z,41.74
2023-05-03T06:50:03.568Z,42.05
2023-05-03T06:52:30.509Z,40.94
2023-05-03T06:54:57.403Z,42.41
2023-05-03T06:57:24.707Z,42.58
2023-05-03T06:59:52.348Z,42.85
2023-05-03T07:02:19.244Z,42.75
2023-05-03T07:04:46.132Z,42.69
2023-05-03T07:07:13.022Z,40.63
2023-05-03T07:09:43.533Z,40.85
2023-05-03T07:12:11.635Z,39.48
2023-05-03T07:14:39.794Z,39.21
2023-05-03T07:17:07.005Z,39.83
2023-05-03T07:19:35.302Z,39.27
2023-05-03T07:22:02.110Z,38.78
2023-05-03T07:24:29.170Z,38.58
2023-05-03T07:26:56.234Z,38.91
2023-05-03T07:29:23.075Z,38.23
2023-05-03T07:31:51.386Z,37.28
2023-05-03T07:34:19.730Z,37.93
2023-05-03T07:36:46.560Z,38.41
2023-05-03T07:39:13.390Z,38.05
2023-05-03T07:41:40.280Z,37.05
2023-05-03T07:44:07.400Z,37.89
2023-05-03T07:46:34.234Z,40.12
2023-05-03T07:49:05.488Z,39.12
2023-05-03T07:51:36.560Z,38.70
2023-05-03T07:54:03.437Z,39.67
2023-05-03T07:56:31.133Z,39.70
2023-05-03T07:59:08.346Z,38.52
2023-05-03T08:01:36.858Z,38.96
2023-05-03T08:04:03.926Z,40.05
2023-05-03T08:06:30.932Z,38.59
2023-05-03T08:08:57.906Z,38.50
2023-05-03T08:11:26.592Z,35.67
2023-05-03T08:13:53.308Z,35.91
2023-05-03T08:16:20.347Z,37.61
2023-05-03T08:18:47.350Z,37.63
2023-05-03T08:21:14.155Z,35.29
2023-05-03T08:23:41.099Z,35.51
2023-05-03T08:26:07.997Z,35.33
2023-05-03T08:28:34.875Z,34.37
2023-05-03T08:31:01.956Z,34.45
2023-05-03T08:33:28.783Z,34.52
2023-05-03T08:35:55.611Z,33.63
2023-05-03T08:38:22.455Z,33.33
2023-05-03T08:40:51.608Z,33.61
2023-05-03T08:43:21.199Z,33.70
2023-05-03T08:45:48.165Z,33.16
2023-05-03T08:48:15.133Z,33.12
2023-05-03T08:50:42.718Z,33.09
2023-05-03T08:53:10.986Z,32.90
2023-05-03T08:55:38.145Z,31.70
2023-05-03T08:58:08.708Z,32.27
2023-05-03T09:00:35.630Z,32.31
2023-05-03T09:03:02.611Z,31.05
2023-05-03T09:05:34.235Z,31.07
2023-05-03T09:08:11.895Z,31.75
2023-05-03T09:10:43.096Z,32.33
2023-05-03T09:13:10.910Z,32.74
2023-05-03T09:15:38.071Z,32.39
2023-05-03T09:18:19.015Z,31.17
2023-05-03T09:20:47.574Z,31.52
2023-05-03T09:23:14.497Z,30.33
2023-05-03T09:25:50.473Z,30.16
2023-05-03T09:28:18.448Z,29.78
2023-05-03T09:30:45.883Z,29.55
2023-05-03T09:33:13.243Z,30.93
2023-05-03T09:35:57.074Z,31.06
2023-05-03T09:38:28.740Z,30.99
2023-05-03T09:40:55.581Z,30.82
2023-05-03T09:43:22.613Z,31.72
2023-05-03T09:45:49.744Z,29.75
2023-05-03T09:48:17.244Z,28.85
2023-05-03T09:50:44.206Z,30.45
2023-05-03T09:53:11.106Z,29.22
2023-05-03T09:55:39.585Z,28.50
2023-05-03T09:58:07.727Z,28.61
2023-05-03T10:00:38.598Z,29.48
2023-05-03T10:03:10.813Z,27.56
2023-05-03T10:05:48.620Z,28.16
2023-05-03T10:08:34.614Z,27.17
2023-05-03T10:11:04.633Z,27.81
2023-05-03T10:13:31.928Z,26.60
2023-05-03T10:16:11.327Z,25.93
2023-05-03T10:18:48.152Z,27.28
2023-05-03T10:21:21.174Z,27.40
2023-05-03T10:24:10.503Z,27.18
2023-05-03T10:26:37.497Z,26.53
2023-05-03T10:29:05.578Z,26.45
2023-05-03T10:31:48.552Z,24.60
2023-05-03T10:34:30.548Z,25.10
2023-05-03T10:36:57.494Z,25.19
2023-05-03T10:39:27.531Z,25.08
2023-05-03T10:41:59.407Z,25.35
2023-05-03T10:44:49.269Z,26.25
2023-05-03T10:47:25.207Z,24.32
2023-05-03T10:50:16.877Z,22.37
2023-05-03T10:52:43.743Z,22.73
2023-05-03T10:55:23.581Z,23.07
2023-05-03T10:57:54.164Z,24.27
2023-05-03T11:00:31.665Z,23.32
2023-05-03T11:03:10.456Z,24.25
2023-05-03T11:05:38.284Z,23.35
2023-05-03T11:08:17.811Z,22.69
2023-05-03T11:10:50.434Z,21.59
2023-05-03T11:13:17.767Z,22.49
2023-05-03T11:15:47.000Z,20.29
2023-05-03T11:18:15.309Z,20.50
2023-05-03T11:20:42.633Z,20.89
2023-05-03T11:23:11.423Z,20.97
2023-05-03T11:25:38.381Z,20.68
2023-05-03T11:28:05.521Z,20.09
2023-05-03T11:30:34.612Z,18.29
2023-05-03T11:33:02.234Z,19.63
2023-05-03T11:35:30.614Z,18.93
2023-05-03T11:37:57.679Z,19.08
2023-05-03T11:40:24.847Z,18.60
2023-05-03T11:43:01.160Z,19.27
2023-05-03T11:45:48.899Z,18.10
2023-05-03T11:48:17.996Z,18.89
2023-05-03T11:50:55.304Z,18.43
2023-05-03T11:53:24.278Z,18.73
2023-05-03T11:55:53.945Z,19.01
2023-05-03T11:58:26.702Z,18.66
2023-05-03T12:00:57.095Z,18.02
2023-05-03T12:03:30.738Z,18.53
2023-05-03T12:06:00.322Z,19.05
2023-05-03T12:08:30.200Z,18.43
2023-05-03T12:10:59.634Z,18.47
2023-05-03T12:13:34.363Z,18.43
2023-05-03T12:18:48.466Z,19.49
2023-05-03T12:23:46.172Z,19.16
2023-05-03T12:26:14.517Z,18.48
2023-05-03T12:28:41.659Z,17.04
2023-05-03T12:31:08.727Z,17.85
2023-05-03T12:33:38.636Z,17.55
2023-05-03T12:36:09.436Z,17.13
2023-05-03T12:38:37.799Z,17.03
2023-05-03T12:41:08.585Z,16.95
2023-05-03T12:43:36.336Z,17.79
2023-05-03T12:46:25.115Z,16.99
2023-05-03T12:48:53.682Z,16.25
2023-05-03T12:51:25.710Z,16.35
2023-05-03T12:53:55.253Z,16.84
2023-05-03T12:56:24.773Z,14.32
2023-05-03T12:59:18.665Z,15.38
2023-05-03T13:02:37.916Z,15.63
2023-05-03T13:06:59.477Z,15.70
2023-05-03T13:09:37.975Z,16.62
2023-05-03T13:12:13.967Z,14.99
2023-05-03T13:14:41.767Z,14.49
2023-05-03T13:17:08.883Z,14.94
2023-05-03T13:19:35.739Z,14.00
2023-05-03T13:22:02.547Z,14.17
2023-05-03T13:24:29.317Z,13.20
2023-05-03T13:26:56.231Z,14.69
2023-05-03T13:29:22.991Z,14.37
2023-05-03T13:31:50.099Z,15.26
2023-05-03T13:34:17.014Z,16.70
2023-05-03T13:36:43.900Z,15.02
2023-05-03T13:39:10.816Z,16.00
2023-05-03T13:41:39.991Z,15.84
2023-05-03T13:44:07.666Z,15.20
2023-05-03T13:46:38.570Z,14.57
2023-05-03T13:49:08.659Z,14.04
2023-05-03T13:51:36.149Z,14.01
2023-05-03T13:54:05.197Z,15.74
2023-05-03T13:56:32.839Z,14.04
2023-05-03T13:58:59.974Z,14.45
2023-05-03T14:01:28.208Z,12.92
2023-05-03T14:03:56.122Z,14.90
2023-05-03T14:06:23.395Z,14.13
2023-05-03T14:08:50.868Z,13.57
2023-05-03T14:11:20.159Z,12.15
2023-05-03T14:13:55.384Z,13.78
2023-05-03T14:16:39.089Z,14.12
2023-05-03T14:19:08.306Z,15.73
2023-05-03T14:21:35.191Z,14.59
2023-05-03T14:24:02.011Z,14.25
2023-05-03T14:26:28.889Z,13.43
2023-05-03T14:28:55.814Z,13.93
2023-05-03T14:31:22.733Z,14.92
2023-05-03T14:33:49.575Z,14.61
2023-05-03T14:36:17.181Z,14.05
2023-05-03T14:38:44.196Z,11.62
2023-05-03T14:41:11.056Z,13.31
2023-05-03T14:43:38.139Z,14.21
2023-05-03T14:46:05.162Z,15.00
2023-05-03T14:48:31.997Z,14.51
2023-05-03T14:50:58.904Z,14.72
2023-05-03T14:53:25.797Z,15.16
2023-05-03T14:55:52.630Z,14.43
2023-05-03T14:58:19.749Z,14.75
2023-05-03T15:00:46.542Z,13.67
2023-05-03T15:03:13.476Z,13.22
2023-05-03T15:05:48.778Z,14.35
2023-05-03T15:08:18.111Z,14.72
2023-05-03T15:10:45.641Z,14.96
2023-05-03T15:13:13.163Z,14.88
2023-05-03T15:15:41.149Z,14.86
2023-05-03T15:18:09.129Z,15.04
2023-05-03T15:20:36.520Z,15.79
2023-05-03T15:23:04.190Z,15.40
2023-05-03T15:25:31.759Z,15.75
2023-05-03T15:28:00.606Z,16.09
2023-05-03T15:30:29.689Z,16.22
2023-05-03T15:32:56.565Z,16.67
2023-05-03T15:35:23.584Z,17.12
2023-05-03T15:37:50.448Z,17.12
2023-05-03T15:40:17.819Z,17.58
2023-05-03T15:42:44.711Z,17.46
2023-05-03T15:45:11.743Z,17.85
2023-05-03T15:47:38.636Z,17.90
2023-05-03T15:50:06.356Z,17.91
2023-05-03T15:52:33.746Z,17.90
2023-05-03T15:55:00.498Z,18.12
2023-05-03T15:57:27.404Z,18.22
2023-05-03T15:59:54.284Z,19.25
2023-05-03T16:02:21.026Z,20.03
2023-05-03T16:04:51.181Z,19.53
2023-05-03T16:07:18.248Z,19.79
2023-05-03T16:09:45.245Z,20.53
2023-05-03T16:12:12.203Z,20.74
2023-05-03T16:14:39.036Z,20.34
2023-05-03T16:17:05.796Z,20.74
2023-05-03T16:19:32.785Z,20.81
2023-05-03T16:21:59.734Z,21.61
2023-05-03T16:24:26.545Z,22.24
2023-05-03T16:26:53.381Z,22.06
2023-05-03T16:29:20.330Z,22.19
2023-05-03T16:31:47.392Z,22.31
2023-05-03T16:34:14.426Z,22.32
2023-05-03T16:36:44.305Z,22.09
2023-05-03T16:39:12.938Z,21.98
2023-05-03T16:41:39.861Z,21.98
2023-05-03T16:44:07.652Z,22.20
2023-05-03T16:46:38.570Z,22.13
2023-05-03T16:49:06.559Z,22.40
2023-05-03T16:51:34.232Z,22.69
2023-05-03T16:54:03.714Z,22.51
2023-05-03T16:56:32.181Z,22.59
2023-05-03T16:58:59.276Z,22.58
2023-05-03T17:01:26.574Z,22.23
2023-05-03T17:03:53.738Z,22.90
2023-05-03T17:06:20.685Z,24.74
2023-05-03T17:08:47.466Z,24.22
2023-05-03T17:11:14.751Z,25.30
2023-05-03T17:13:41.860Z,25.61
2023-05-03T17:16:10.767Z,24.80
2023-05-03T17:18:39.272Z,24.92
2023-05-03T17:21:07.461Z,24.41
2023-05-03T17:23:38.781Z,24.88
2023-05-03T17:26:07.643Z,25.37
2023-05-03T17:28:34.814Z,26.01
2023-05-03T17:31:07.484Z,26.13
2023-05-03T17:33:35.015Z,26.29
2023-05-03T17:36:03.398Z,26.40
2023-05-03T17:38:30.939Z,26.49
2023-05-03T17:40:57.769Z,26.09
2023-05-03T17:43:24.686Z,26.01
2023-05-03T17:45:51.642Z,25.77
2023-05-03T17:48:18.520Z,26.20
2023-05-03T17:50:45.340Z,26.58
2023-05-03T17:53:12.425Z,25.68
2023-05-03T17:55:39.520Z,26.35
2023-05-03T17:58:06.608Z,26.72
2023-05-03T18:00:34.226Z,26.40
2023-05-03T18:03:05.010Z,26.93
2023-05-03T18:05:34.754Z,27.09
2023-05-03T18:08:05.312Z,26.91
2023-05-03T18:10:35.160Z,27.16
2023-05-03T18:13:05.321Z,27.25
2023-05-03T18:15:41.751Z,26.98
2023-05-03T18:18:12.229Z,27.33
2023-05-03T18:20:39.581Z,27.07
2023-05-03T18:23:10.709Z,27.66
2023-05-03T18:25:37.761Z,26.96
2023-05-03T18:28:07.437Z,26.77
2023-05-03T18:30:36.681Z,26.89
2023-05-03T18:33:03.709Z,27.31
2023-05-03T18:35:30.604Z,27.56
2023-05-03T18:37:57.446Z,27.45
2023-05-03T18:40:24.364Z,27.88
2023-05-03T18:42:51.126Z,29.32
2023-05-03T18:45:18.271Z,30.98
2023-05-03T18:47:45.378Z,30.75
2023-05-03T18:50:12.478Z,30.15
2023-05-03T18:52:39.494Z,30.03
2023-05-03T18:55:07.738Z,29.48
2023-05-03T18:57:34.555Z,29.86
2023-05-03T19:00:01.752Z,29.59
2023-05-03T19:02:29.049Z,29.65
2023-05-03T19:04:56.148Z,29.83
2023-05-03T19:07:23.128Z,29.78
2023-05-03T19:09:54.674Z,29.50
2023-05-03T19:12:21.484Z,29.32
2023-05-03T19:14:51.414Z,28.96
2023-05-03T19:17:18.400Z,28.96
2023-05-03T19:19:45.275Z,29.03
2023-05-03T19:22:12.059Z,28.93
2023-05-03T19:24:38.932Z,28.89
2023-05-03T19:27:05.788Z,28.85
2023-05-03T19:29:32.633Z,28.88
2023-05-03T19:32:05.264Z,28.92
2023-05-03T19:34:37.443Z,28.64
2023-05-03T19:37:05.301Z,28.71
2023-05-03T19:39:32.245Z,28.55
2023-05-03T19:41:59.083Z,28.39
2023-05-03T19:44:28.943Z,28.63
2023-05-03T19:46:59.094Z,28.45
2023-05-03T19:49:25.973Z,28.52
2023-05-03T19:51:56.516Z,28.18
2023-05-03T19:54:23.531Z,27.79
2023-05-03T19:56:50.486Z,28.08
2023-05-03T19:59:17.479Z,28.06
2023-05-03T20:01:44.899Z,28.51
2023-05-03T20:04:15.756Z,28.37
2023-05-03T20:06:42.944Z,28.14
2023-05-03T20:09:09.791Z,27.88
2023-05-03T20:11:36.699Z,28.54
2023-05-03T20:14:03.622Z,28.18
2023-05-03T20:16:30.403Z,28.06
2023-05-03T20:18:57.214Z,28.52
2023-05-03T20:21:24.422Z,28.93
2023-05-03T20:23:51.251Z,28.61
2023-05-03T20:26:18.152Z,28.80
2023-05-03T20:28:45.089Z,29.06
2023-05-03T20:31:12.019Z,28.66
2023-05-03T20:33:38.820Z,28.51
2023-05-03T20:36:06.032Z,28.56
2023-05-03T20:38:33.305Z,27.90
2023-05-03T20:41:00.181Z,28.04
2023-05-03T20:43:27.290Z,28.89
2023-05-03T20:45:54.227Z,29.62
2023-05-03T20:48:21.164Z,30.32
2023-05-03T20:50:48.231Z,30.68
2023-05-03T20:53:15.095Z,30.50
2023-05-03T20:55:41.952Z,29.96
2023-05-03T20:58:08.828Z,30.12
2023-05-03T21:00:35.579Z,29.60
2023-05-03T21:03:02.489Z,29.81
2023-05-03T21:05:29.380Z,30.04
2023-05-03T21:07:56.221Z,31.06
2023-05-03T21:10:23.193Z,31.15
2023-05-03T21:12:51.804Z,31.51
2023-05-03T21:15:18.740Z,31.48
2023-05-03T21:17:45.620Z,31.91
2023-05-03T21:20:12.998Z,32.18
2023-05-03T21:22:39.837Z,32.20
2023-05-03T21:25:07.352Z,32.27
2023-05-03T21:27:34.307Z,32.80
2023-05-03T21:30:01.153Z,33.19
2023-05-03T21:32:27.942Z,33.59
2023-05-03T21:34:54.816Z,34.06
2023-05-03T21:37:21.613Z,33.85
2023-05-03T21:40:05.420Z,34.13
2023-05-03T21:42:32.339Z,34.68
2023-05-03T21:44:59.202Z,34.79
2023-05-03T21:47:25.954Z,34.86
2023-05-03T21:49:52.951Z,34.68
2023-05-03T21:52:20.485Z,34.79
2023-05-03T21:54:47.358Z,35.04
2023-05-03T21:57:14.262Z,35.37
2023-05-03T21:59:41.100Z,35.34
2023-05-03T22:02:08.187Z,35.41
2023-05-03T22:04:35.198Z,35.73
2023-05-03T22:07:02.059Z,36.35
2023-05-03T22:09:28.845Z,36.69
2023-05-03T22:11:55.739Z,36.74
2023-05-03T22:14:22.633Z,36.65
2023-05-03T22:16:49.389Z,36.88
2023-05-03T22:19:16.206Z,36.92
2023-05-03T22:21:43.077Z,36.58
2023-05-03T22:24:09.891Z,36.61
2023-05-03T22:26:36.755Z,36.50
2023-05-03T22:29:03.726Z,37.10
2023-05-03T22:31:30.620Z,36.82
2023-05-03T22:33:57.652Z,37.83
2023-05-03T22:36:24.519Z,38.34
2023-05-03T22:38:51.282Z,37.99
2023-05-03T22:41:18.226Z,37.17
2023-05-03T22:43:44.969Z,36.54
2023-05-03T22:46:11.937Z,36.50
2023-05-03T22:48:38.992Z,36.00
2023-05-03T22:51:06.007Z,36.61
2023-05-03T22:53:32.856Z,36.57
2023-05-03T22:56:01.923Z,36.70
2023-05-03T22:58:28.956Z,35.82
2023-05-03T23:00:56.519Z,35.80
2023-05-03T23:03:23.900Z,35.83
2023-05-03T23:05:55.082Z,35.90
2023-05-03T23:08:22.285Z,35.83
2023-05-03T23:10:49.159Z,36.34
2023-05-03T23:13:16.047Z,37.19
2023-05-03T23:15:42.936Z,37.94
2023-05-03T23:18:09.909Z,38.41
2023-05-03T23:20:36.776Z,38.41
2023-05-03T23:23:03.602Z,39.46
2023-05-03T23:25:30.459Z,39.65
2023-05-03T23:27:57.329Z,40.35
2023-05-03T23:30:24.738Z,40.88
2023-05-03T23:32:52.053Z,40.67
2023-05-03T23:35:21.021Z,41.40
2023-05-03T23:37:47.850Z,41.72
2023-05-03T23:40:14.810Z,41.75
2023-05-03T23:42:41.691Z,40.79
2023-05-03T23:45:09.414Z,39.52
2023-05-03T23:47:36.342Z,38.86
2023-05-03T23:50:03.480Z,39.78
2023-05-03T23:52:30.456Z,40.40
2023-05-03T23:54:57.446Z,39.82
2023-05-03T23:57:24.208Z,39.90
2023-05-03T23:59:50.952Z,39.96
